PWSweather.com
Personal Weather Stations
Station Observations
719732
Ponferrada, PonferradaES 24411

PonferradaPonferradaES 24411

Lat: 42.5728, Lon: -6.6425

Elevation: 1676

Station Type: PCE-FWS 20 con garita Ambient Weather SRS100LX

www.meteo.spyfly.es

High Low Average
Temperature 93.7°F34.3°C 52.3°F11.3°C 73.2°F22.9°C
Dew Point 60.3°F15.7°C 34.0°F1.1°C 52.8°F11.6°C
Winds 10.7 mph 17.2 kmh Calm Calm 2.0 mph S3.2 kmh S
Wind Gusts 13.6 mph21.9 kmh -- 4.0 mph6.4 kmh
Humidity 99% 18% 57%
Pressure 30.20 in1022.7 mb 30.05 in1017.6 mb -
Precipitation 0.00 in0.0 mm - -
Hour Temp Dew Point Humidity Winds Wind Gusts Pressure Precip Precip Rate Daily Precip Total
12:00 AM 63.1°F17.3°C 57.9°F14.4°C 83% 2.2 mph N3.5 kmh N 4.5 mph7.2 kmh 30.16 in1021.3 mb 0.00 in0.0 mm 0.00 in0.0 mm 0.00 in0.0 mm
12:05 AM 63.1°F17.3°C 58.2°F14.6°C 84% 0.7 mph NE1.1 kmh NE 5.4 mph8.7 kmh 30.16 in1021.3 mb 0.00 in0.0 mm 0.00 in0.0 mm 0.00 in0.0 mm
12:10 AM 63.1°F17.3°C 58.2°F14.6°C 84% Calm Calm 5.4 mph8.7 kmh 30.16 in1021.3 mb 0.00 in0.0 mm 0.00 in0.0 mm 0.00 in0.0 mm
12:15 AM 63.0°F17.2°C 58.1°F14.5°C 84% 3.1 mph N5.0 kmh N 3.8 mph6.1 kmh 30.16 in1021.3 mb 0.00 in0.0 mm 0.00 in0.0 mm 0.00 in0.0 mm
12:20 AM 62.8°F17.1°C 57.9°F14.4°C 84% 0.7 mph NNW1.1 kmh NNW 3.8 mph6.1 kmh 30.16 in1021.3 mb 0.00 in0.0 mm 0.00 in0.0 mm 0.00 in0.0 mm
12:25 AM 62.4°F16.9°C 57.9°F14.4°C 85% 2.2 mph NNW3.5 kmh NNW 3.8 mph6.1 kmh 30.16 in1021.3 mb 0.00 in0.0 mm 0.00 in0.0 mm 0.00 in0.0 mm
12:30 AM 62.2°F16.8°C 58.0°F14.4°C 86% Calm Calm 3.1 mph5.0 kmh 30.16 in1021.3 mb 0.00 in0.0 mm 0.00 in0.0 mm 0.00 in0.0 mm
12:35 AM 61.9°F16.6°C 57.7°F14.3°C 86% Calm Calm 2.2 mph3.5 kmh 30.16 in1021.3 mb 0.00 in0.0 mm 0.00 in0.0 mm 0.00 in0.0 mm
12:40 AM 61.9°F16.6°C 58.0°F14.4°C 87% Calm Calm 1.6 mph2.6 kmh 30.16 in1021.3 mb 0.00 in0.0 mm 0.00 in0.0 mm 0.00 in0.0 mm
12:45 AM 61.5°F16.4°C 57.6°F14.2°C 87% 3.1 mph SE5.0 kmh SE 3.8 mph6.1 kmh 30.16 in1021.3 mb 0.00 in0.0 mm 0.00 in0.0 mm 0.00 in0.0 mm
12:50 AM 61.5°F16.4°C 57.6°F14.2°C 87% 2.2 mph ESE3.5 kmh ESE 3.8 mph6.1 kmh 30.16 in1021.3 mb 0.00 in0.0 mm 0.00 in0.0 mm 0.00 in0.0 mm
12:55 AM 61.5°F16.4°C 57.6°F14.2°C 87% 1.6 mph ESE2.6 kmh ESE 3.8 mph6.1 kmh 30.16 in1021.3 mb 0.00 in0.0 mm 0.00 in0.0 mm 0.00 in0.0 mm
01:00 AM 61.5°F16.4°C 57.9°F14.4°C 88% 1.6 mph ESE2.6 kmh ESE 3.1 mph5.0 kmh 30.16 in1021.3 mb 0.00 in0.0 mm 0.00 in0.0 mm 0.00 in0.0 mm
01:05 AM 61.5°F16.4°C 57.9°F14.4°C 88% 1.6 mph E2.6 kmh E 3.1 mph5.0 kmh 30.17 in1021.7 mb 0.00 in0.0 mm 0.00 in0.0 mm 0.00 in0.0 mm
01:10 AM 61.3°F16.3°C 57.8°F14.3°C 88% Calm Calm 2.2 mph3.5 kmh 30.17 in1021.7 mb 0.00 in0.0 mm 0.00 in0.0 mm 0.00 in0.0 mm
01:15 AM 61.0°F16.1°C 57.4°F14.1°C 88% 0.7 mph ENE1.1 kmh ENE 2.2 mph3.5 kmh 30.16 in1021.3 mb 0.00 in0.0 mm 0.00 in0.0 mm 0.00 in0.0 mm
01:20 AM 60.8°F16.0°C 57.2°F14.0°C 88% 0.7 mph N1.1 kmh N 2.2 mph3.5 kmh 30.16 in1021.3 mb 0.00 in0.0 mm 0.00 in0.0 mm 0.00 in0.0 mm
01:25 AM 60.4°F15.8°C 57.5°F14.2°C 90% 0.7 mph N1.1 kmh N 2.2 mph3.5 kmh 30.16 in1021.3 mb 0.00 in0.0 mm 0.00 in0.0 mm 0.00 in0.0 mm
01:30 AM 60.1°F15.6°C 57.2°F14.0°C 90% Calm Calm 2.2 mph3.5 kmh 30.16 in1021.3 mb 0.00 in0.0 mm 0.00 in0.0 mm 0.00 in0.0 mm
01:35 AM 59.9°F15.5°C 57.3°F14.1°C 91% Calm Calm 1.6 mph2.6 kmh 30.16 in1021.3 mb 0.00 in0.0 mm 0.00 in0.0 mm 0.00 in0.0 mm
01:40 AM 59.5°F15.3°C 57.2°F14.0°C 92% Calm Calm 2.2 mph3.5 kmh 30.16 in1021.3 mb 0.00 in0.0 mm 0.00 in0.0 mm 0.00 in0.0 mm
01:45 AM 59.5°F15.3°C 57.2°F14.0°C 92% Calm Calm 2.2 mph3.5 kmh 30.17 in1021.7 mb 0.00 in0.0 mm 0.00 in0.0 mm 0.00 in0.0 mm
01:50 AM 59.4°F15.2°C 57.3°F14.1°C 93% 0.7 mph N1.1 kmh N 1.6 mph2.6 kmh 30.16 in1021.3 mb 0.00 in0.0 mm 0.00 in0.0 mm 0.00 in0.0 mm
01:55 AM 59.4°F15.2°C 57.3°F14.1°C 93% 1.6 mph E2.6 kmh E 3.1 mph5.0 kmh 30.17 in1021.7 mb 0.00 in0.0 mm 0.00 in0.0 mm 0.00 in0.0 mm
02:00 AM 59.4°F15.2°C 57.3°F14.1°C 93% 1.6 mph E2.6 kmh E 3.8 mph6.1 kmh 30.16 in1021.3 mb 0.00 in0.0 mm 0.00 in0.0 mm 0.00 in0.0 mm
02:05 AM 59.4°F15.2°C 57.3°F14.1°C 93% 1.6 mph E2.6 kmh E 3.8 mph6.1 kmh 30.16 in1021.3 mb 0.00 in0.0 mm 0.00 in0.0 mm 0.00 in0.0 mm
02:10 AM 59.4°F15.2°C 57.3°F14.1°C 93% 1.6 mph E2.6 kmh E 3.1 mph5.0 kmh 30.16 in1021.3 mb 0.00 in0.0 mm 0.00 in0.0 mm 0.00 in0.0 mm
02:15 AM 59.4°F15.2°C 57.0°F13.9°C 92% 0.7 mph NE1.1 kmh NE 3.1 mph5.0 kmh 30.17 in1021.7 mb 0.00 in0.0 mm 0.00 in0.0 mm 0.00 in0.0 mm
02:20 AM 59.0°F15.0°C 56.7°F13.7°C 92% Calm Calm 1.6 mph2.6 kmh 30.17 in1021.7 mb 0.00 in0.0 mm 0.00 in0.0 mm 0.00 in0.0 mm
02:25 AM 58.8°F14.9°C 56.5°F13.6°C 92% Calm Calm 2.2 mph3.5 kmh 30.17 in1021.7 mb 0.00 in0.0 mm 0.00 in0.0 mm 0.00 in0.0 mm
02:30 AM 58.5°F14.7°C 56.2°F13.4°C 92% 0.7 mph N1.1 kmh N 2.2 mph3.5 kmh 30.17 in1021.7 mb 0.00 in0.0 mm 0.00 in0.0 mm 0.00 in0.0 mm
02:35 AM 57.9°F14.4°C 55.6°F13.1°C 92% 2.2 mph NNE3.5 kmh NNE 3.1 mph5.0 kmh 30.16 in1021.3 mb 0.00 in0.0 mm 0.00 in0.0 mm 0.00 in0.0 mm
02:40 AM 57.6°F14.2°C 55.3°F12.9°C 92% 0.7 mph NE1.1 kmh NE 3.1 mph5.0 kmh 30.17 in1021.7 mb 0.00 in0.0 mm 0.00 in0.0 mm 0.00 in0.0 mm
02:45 AM 57.4°F14.1°C 55.1°F12.8°C 92% 1.6 mph E2.6 kmh E 3.1 mph5.0 kmh 30.17 in1021.7 mb 0.00 in0.0 mm 0.00 in0.0 mm 0.00 in0.0 mm
02:50 AM 57.4°F14.1°C 55.4°F13.0°C 93% Calm Calm 2.2 mph3.5 kmh 30.17 in1021.7 mb 0.00 in0.0 mm 0.00 in0.0 mm 0.00 in0.0 mm
02:55 AM 57.4°F14.1°C 55.4°F13.0°C 93% Calm Calm 2.2 mph3.5 kmh 30.17 in1021.7 mb 0.00 in0.0 mm 0.00 in0.0 mm 0.00 in0.0 mm
03:00 AM 57.2°F14.0°C 55.2°F12.9°C 93% Calm Calm 1.6 mph2.6 kmh 30.17 in1021.7 mb 0.00 in0.0 mm 0.00 in0.0 mm 0.00 in0.0 mm
03:05 AM 57.2°F14.0°C 55.2°F12.9°C 93% Calm Calm 1.6 mph2.6 kmh 30.17 in1021.7 mb 0.00 in0.0 mm 0.00 in0.0 mm 0.00 in0.0 mm
03:10 AM 57.0°F13.9°C 55.3°F12.9°C 94% Calm Calm 0.7 mph1.1 kmh 30.17 in1021.7 mb 0.00 in0.0 mm 0.00 in0.0 mm 0.00 in0.0 mm
03:15 AM 56.8°F13.8°C 55.1°F12.8°C 94% 0.7 mph WSW1.1 kmh WSW 1.6 mph2.6 kmh 30.17 in1021.7 mb 0.00 in0.0 mm 0.00 in0.0 mm 0.00 in0.0 mm
03:20 AM 56.7°F13.7°C 55.0°F12.8°C 94% Calm Calm 2.2 mph3.5 kmh 30.17 in1021.7 mb 0.00 in0.0 mm 0.00 in0.0 mm 0.00 in0.0 mm
03:25 AM 56.7°F13.7°C 55.3°F12.9°C 95% 1.6 mph SW2.6 kmh SW 2.2 mph3.5 kmh 30.17 in1021.7 mb 0.00 in0.0 mm 0.00 in0.0 mm 0.00 in0.0 mm
03:30 AM 56.5°F13.6°C 55.1°F12.8°C 95% 0.7 mph N1.1 kmh N 2.2 mph3.5 kmh 30.17 in1021.7 mb 0.00 in0.0 mm 0.00 in0.0 mm 0.00 in0.0 mm
03:35 AM 56.3°F13.5°C 54.9°F12.7°C 95% 0.7 mph N1.1 kmh N 2.2 mph3.5 kmh 30.18 in1022.0 mb 0.00 in0.0 mm 0.00 in0.0 mm 0.00 in0.0 mm
03:40 AM 56.1°F13.4°C 54.7°F12.6°C 95% Calm Calm 2.2 mph3.5 kmh 30.18 in1022.0 mb 0.00 in0.0 mm 0.00 in0.0 mm 0.00 in0.0 mm
03:45 AM 55.9°F13.3°C 54.5°F12.5°C 95% Calm Calm 1.6 mph2.6 kmh 30.18 in1022.0 mb 0.00 in0.0 mm 0.00 in0.0 mm 0.00 in0.0 mm
03:50 AM 55.8°F13.2°C 54.4°F12.4°C 95% 0.7 mph NNW1.1 kmh NNW 2.2 mph3.5 kmh 30.18 in1022.0 mb 0.00 in0.0 mm 0.00 in0.0 mm 0.00 in0.0 mm
03:55 AM 55.6°F13.1°C 54.2°F12.3°C 95% Calm Calm 2.2 mph3.5 kmh 30.18 in1022.0 mb 0.00 in0.0 mm 0.00 in0.0 mm 0.00 in0.0 mm
04:00 AM 55.6°F13.1°C 54.2°F12.3°C 95% Calm Calm 2.2 mph3.5 kmh 30.18 in1022.0 mb 0.00 in0.0 mm 0.00 in0.0 mm 0.00 in0.0 mm
04:05 AM 55.8°F13.2°C 54.6°F12.6°C 96% Calm Calm 2.2 mph3.5 kmh 30.19 in1022.4 mb 0.00 in0.0 mm 0.00 in0.0 mm 0.00 in0.0 mm
04:10 AM 55.8°F13.2°C 54.6°F12.6°C 96% Calm Calm 2.2 mph3.5 kmh 30.18 in1022.0 mb 0.00 in0.0 mm 0.00 in0.0 mm 0.00 in0.0 mm
04:15 AM 55.8°F13.2°C 54.6°F12.6°C 96% Calm Calm 2.2 mph3.5 kmh 30.18 in1022.0 mb 0.00 in0.0 mm 0.00 in0.0 mm 0.00 in0.0 mm
04:20 AM 55.8°F13.2°C 54.6°F12.6°C 96% Calm Calm 1.6 mph2.6 kmh 30.18 in1022.0 mb 0.00 in0.0 mm 0.00 in0.0 mm 0.00 in0.0 mm
04:25 AM 55.8°F13.2°C 54.6°F12.6°C 96% 0.7 mph SE1.1 kmh SE 3.1 mph5.0 kmh 30.18 in1022.0 mb 0.00 in0.0 mm 0.00 in0.0 mm 0.00 in0.0 mm
04:30 AM 55.8°F13.2°C 54.6°F12.6°C 96% 0.7 mph SE1.1 kmh SE 3.1 mph5.0 kmh 30.18 in1022.0 mb 0.00 in0.0 mm 0.00 in0.0 mm 0.00 in0.0 mm
04:35 AM 55.8°F13.2°C 54.6°F12.6°C 96% 0.7 mph E1.1 kmh E 2.2 mph3.5 kmh 30.18 in1022.0 mb 0.00 in0.0 mm 0.00 in0.0 mm 0.00 in0.0 mm
04:40 AM 55.8°F13.2°C 54.6°F12.6°C 96% 0.7 mph E1.1 kmh E 2.2 mph3.5 kmh 30.18 in1022.0 mb 0.00 in0.0 mm 0.00 in0.0 mm 0.00 in0.0 mm
04:45 AM 55.8°F13.2°C 54.6°F12.6°C 96% Calm Calm 2.2 mph3.5 kmh 30.18 in1022.0 mb 0.00 in0.0 mm 0.00 in0.0 mm 0.00 in0.0 mm
04:50 AM 55.4°F13.0°C 54.0°F12.2°C 95% Calm Calm 3.8 mph6.1 kmh 30.18 in1022.0 mb 0.00 in0.0 mm 0.00 in0.0 mm 0.00 in0.0 mm
04:55 AM 55.2°F12.9°C 53.8°F12.1°C 95% 1.6 mph NNE2.6 kmh NNE 3.8 mph6.1 kmh 30.18 in1022.0 mb 0.00 in0.0 mm 0.00 in0.0 mm 0.00 in0.0 mm
05:00 AM 55.0°F12.8°C 53.6°F12.0°C 95% 1.6 mph NNW2.6 kmh NNW 2.2 mph3.5 kmh 30.18 in1022.0 mb 0.00 in0.0 mm 0.00 in0.0 mm 0.00 in0.0 mm
05:05 AM 55.0°F12.8°C 53.6°F12.0°C 95% 1.6 mph NW2.6 kmh NW 2.2 mph3.5 kmh 30.18 in1022.0 mb 0.00 in0.0 mm 0.00 in0.0 mm 0.00 in0.0 mm
05:10 AM 54.7°F12.6°C 53.6°F12.0°C 96% 1.6 mph NW2.6 kmh NW 2.2 mph3.5 kmh 30.18 in1022.0 mb 0.00 in0.0 mm 0.00 in0.0 mm 0.00 in0.0 mm
05:15 AM 54.5°F12.5°C 53.4°F11.9°C 96% Calm Calm 2.2 mph3.5 kmh 30.18 in1022.0 mb 0.00 in0.0 mm 0.00 in0.0 mm 0.00 in0.0 mm
05:20 AM 54.5°F12.5°C 53.4°F11.9°C 96% 0.7 mph N1.1 kmh N 2.2 mph3.5 kmh 30.17 in1021.7 mb 0.00 in0.0 mm 0.00 in0.0 mm 0.00 in0.0 mm
05:25 AM 54.3°F12.4°C 53.5°F11.9°C 97% 0.7 mph NNW1.1 kmh NNW 2.2 mph3.5 kmh 30.18 in1022.0 mb 0.00 in0.0 mm 0.00 in0.0 mm 0.00 in0.0 mm
05:30 AM 54.1°F12.3°C 53.3°F11.8°C 97% 0.7 mph NNW1.1 kmh NNW 2.2 mph3.5 kmh 30.17 in1021.7 mb 0.00 in0.0 mm 0.00 in0.0 mm 0.00 in0.0 mm
05:35 AM 54.1°F12.3°C 53.3°F11.8°C 97% Calm Calm 2.2 mph3.5 kmh 30.18 in1022.0 mb 0.00 in0.0 mm 0.00 in0.0 mm 0.00 in0.0 mm
05:40 AM 54.0°F12.2°C 53.1°F11.7°C 97% Calm Calm 2.2 mph3.5 kmh 30.17 in1021.7 mb 0.00 in0.0 mm 0.00 in0.0 mm 0.00 in0.0 mm
05:45 AM 53.8°F12.1°C 53.0°F11.7°C 97% Calm Calm 0.7 mph1.1 kmh 30.18 in1022.0 mb 0.00 in0.0 mm 0.00 in0.0 mm 0.00 in0.0 mm
05:50 AM 53.8°F12.1°C 53.0°F11.7°C 97% 0.7 mph NNE1.1 kmh NNE 1.6 mph2.6 kmh 30.18 in1022.0 mb 0.00 in0.0 mm 0.00 in0.0 mm 0.00 in0.0 mm
05:55 AM 53.8°F12.1°C 53.0°F11.7°C 97% 1.6 mph SE2.6 kmh SE 3.1 mph5.0 kmh 30.18 in1022.0 mb 0.00 in0.0 mm 0.00 in0.0 mm 0.00 in0.0 mm
06:00 AM 54.0°F12.2°C 53.1°F11.7°C 97% Calm Calm 3.1 mph5.0 kmh 30.18 in1022.0 mb 0.00 in0.0 mm 0.00 in0.0 mm 0.00 in0.0 mm
06:05 AM 54.0°F12.2°C 53.1°F11.7°C 97% 0.7 mph E1.1 kmh E 2.2 mph3.5 kmh 30.18 in1022.0 mb 0.00 in0.0 mm 0.00 in0.0 mm 0.00 in0.0 mm
06:10 AM 53.8°F12.1°C 53.0°F11.7°C 97% Calm Calm 2.2 mph3.5 kmh 30.17 in1021.7 mb 0.00 in0.0 mm 0.00 in0.0 mm 0.00 in0.0 mm
06:15 AM 53.6°F12.0°C 52.8°F11.6°C 97% Calm Calm 2.2 mph3.5 kmh 30.18 in1022.0 mb 0.00 in0.0 mm 0.00 in0.0 mm 0.00 in0.0 mm
06:20 AM 53.6°F12.0°C 52.8°F11.6°C 97% 0.7 mph E1.1 kmh E 2.2 mph3.5 kmh 30.18 in1022.0 mb 0.00 in0.0 mm 0.00 in0.0 mm 0.00 in0.0 mm
06:25 AM 53.2°F11.8°C 52.7°F11.5°C 98% 0.7 mph ENE1.1 kmh ENE 2.2 mph3.5 kmh 30.18 in1022.0 mb 0.00 in0.0 mm 0.00 in0.0 mm 0.00 in0.0 mm
06:30 AM 53.1°F11.7°C 52.5°F11.4°C 98% 0.7 mph NNE1.1 kmh NNE 2.2 mph3.5 kmh 30.18 in1022.0 mb 0.00 in0.0 mm 0.00 in0.0 mm 0.00 in0.0 mm
06:35 AM 52.9°F11.6°C 52.3°F11.3°C 98% Calm Calm 3.1 mph5.0 kmh 30.18 in1022.0 mb 0.00 in0.0 mm 0.00 in0.0 mm 0.00 in0.0 mm
06:40 AM 52.7°F11.5°C 52.2°F11.2°C 98% 1.6 mph N2.6 kmh N 3.1 mph5.0 kmh 30.18 in1022.0 mb 0.00 in0.0 mm 0.00 in0.0 mm 0.00 in0.0 mm
06:45 AM 52.5°F11.4°C 52.0°F11.1°C 98% Calm Calm 2.2 mph3.5 kmh 30.18 in1022.0 mb 0.00 in0.0 mm 0.00 in0.0 mm 0.00 in0.0 mm
06:50 AM 52.3°F11.3°C 51.8°F11.0°C 98% 0.7 mph N1.1 kmh N 2.2 mph3.5 kmh 30.18 in1022.0 mb 0.00 in0.0 mm 0.00 in0.0 mm 0.00 in0.0 mm
06:55 AM 52.3°F11.3°C 51.8°F11.0°C 98% Calm Calm 1.6 mph2.6 kmh 30.18 in1022.0 mb 0.00 in0.0 mm 0.00 in0.0 mm 0.00 in0.0 mm
07:00 AM 52.3°F11.3°C 51.8°F11.0°C 98% 0.7 mph ESE1.1 kmh ESE 3.1 mph5.0 kmh 30.18 in1022.0 mb 0.00 in0.0 mm 0.00 in0.0 mm 0.00 in0.0 mm
07:05 AM 52.3°F11.3°C 51.8°F11.0°C 98% 0.7 mph SE1.1 kmh SE 3.1 mph5.0 kmh 30.19 in1022.4 mb 0.00 in0.0 mm 0.00 in0.0 mm 0.00 in0.0 mm
07:10 AM 52.5°F11.4°C 52.0°F11.1°C 98% 0.7 mph E1.1 kmh E 1.6 mph2.6 kmh 30.19 in1022.4 mb 0.00 in0.0 mm 0.00 in0.0 mm 0.00 in0.0 mm
07:15 AM 52.5°F11.4°C 52.0°F11.1°C 98% Calm Calm 1.6 mph2.6 kmh 30.19 in1022.4 mb 0.00 in0.0 mm 0.00 in0.0 mm 0.00 in0.0 mm
07:20 AM 52.7°F11.5°C 52.2°F11.2°C 98% Calm Calm 0.7 mph1.1 kmh 30.19 in1022.4 mb 0.00 in0.0 mm 0.00 in0.0 mm 0.00 in0.0 mm
07:25 AM 53.2°F11.8°C 52.7°F11.5°C 98% Calm Calm -- 30.19 in1022.4 mb 0.00 in0.0 mm 0.00 in0.0 mm 0.00 in0.0 mm
07:30 AM 54.0°F12.2°C 53.1°F11.7°C 97% 0.7 mph N1.1 kmh N 1.6 mph2.6 kmh 30.19 in1022.4 mb 0.00 in0.0 mm 0.00 in0.0 mm 0.00 in0.0 mm
07:35 AM 54.7°F12.6°C 53.9°F12.2°C 97% Calm Calm 1.6 mph2.6 kmh 30.19 in1022.4 mb 0.00 in0.0 mm 0.00 in0.0 mm 0.00 in0.0 mm
07:40 AM 55.2°F12.9°C 54.4°F12.4°C 97% Calm Calm 1.6 mph2.6 kmh 30.20 in1022.7 mb 0.00 in0.0 mm 0.00 in0.0 mm 0.00 in0.0 mm
07:45 AM 55.9°F13.3°C 55.7°F13.2°C 99% Calm Calm -- 30.20 in1022.7 mb 0.00 in0.0 mm 0.00 in0.0 mm 0.00 in0.0 mm
07:50 AM 57.0°F13.9°C 56.8°F13.8°C 99% Calm Calm -- 30.20 in1022.7 mb 0.00 in0.0 mm 0.00 in0.0 mm 0.00 in0.0 mm
07:55 AM 57.9°F14.4°C 57.1°F13.9°C 97% 1.6 mph W2.6 kmh W 2.2 mph3.5 kmh 30.20 in1022.7 mb 0.00 in0.0 mm 0.00 in0.0 mm 0.00 in0.0 mm
08:00 AM 58.3°F14.6°C 57.4°F14.1°C 97% Calm Calm 2.2 mph3.5 kmh 30.20 in1022.7 mb 0.00 in0.0 mm 0.00 in0.0 mm 0.00 in0.0 mm
08:05 AM 59.5°F15.3°C 58.1°F14.5°C 95% Calm Calm 2.2 mph3.5 kmh 30.20 in1022.7 mb 0.00 in0.0 mm 0.00 in0.0 mm 0.00 in0.0 mm
08:10 AM 60.4°F15.8°C 58.7°F14.8°C 94% Calm Calm 1.6 mph2.6 kmh 30.20 in1022.7 mb 0.00 in0.0 mm 0.00 in0.0 mm 0.00 in0.0 mm
08:15 AM 61.3°F16.3°C 59.0°F15.0°C 92% Calm Calm 1.6 mph2.6 kmh 30.20 in1022.7 mb 0.00 in0.0 mm 0.00 in0.0 mm 0.00 in0.0 mm
08:20 AM 62.1°F16.7°C 58.8°F14.9°C 89% Calm Calm 2.2 mph3.5 kmh 30.20 in1022.7 mb 0.00 in0.0 mm 0.00 in0.0 mm 0.00 in0.0 mm
08:25 AM 62.6°F17.0°C 58.4°F14.7°C 86% 0.7 mph WNW1.1 kmh WNW 2.2 mph3.5 kmh 30.20 in1022.7 mb 0.00 in0.0 mm 0.00 in0.0 mm 0.00 in0.0 mm
08:30 AM 63.5°F17.5°C 58.3°F14.6°C 83% 0.7 mph S1.1 kmh S 2.2 mph3.5 kmh 30.20 in1022.7 mb 0.00 in0.0 mm 0.00 in0.0 mm 0.00 in0.0 mm
08:35 AM 64.2°F17.9°C 57.9°F14.4°C 80% 1.6 mph SSE2.6 kmh SSE 3.1 mph5.0 kmh 30.20 in1022.7 mb 0.00 in0.0 mm 0.00 in0.0 mm 0.00 in0.0 mm
08:40 AM 64.9°F18.3°C 57.6°F14.2°C 77% 0.7 mph S1.1 kmh S 3.1 mph5.0 kmh 30.20 in1022.7 mb 0.00 in0.0 mm 0.00 in0.0 mm 0.00 in0.0 mm
08:45 AM 65.7°F18.7°C 57.9°F14.4°C 76% 0.7 mph S1.1 kmh S 2.2 mph3.5 kmh 30.20 in1022.7 mb 0.00 in0.0 mm 0.00 in0.0 mm 0.00 in0.0 mm
08:50 AM 66.6°F19.2°C 58.0°F14.4°C 74% Calm Calm 2.2 mph3.5 kmh 30.20 in1022.7 mb 0.00 in0.0 mm 0.00 in0.0 mm 0.00 in0.0 mm
08:55 AM 67.3°F19.6°C 58.0°F14.4°C 72% 1.6 mph S2.6 kmh S 3.1 mph5.0 kmh 30.20 in1022.7 mb 0.00 in0.0 mm 0.00 in0.0 mm 0.00 in0.0 mm
09:00 AM 67.5°F19.7°C 57.8°F14.3°C 71% 2.2 mph S3.5 kmh S 3.1 mph5.0 kmh 30.20 in1022.7 mb 0.00 in0.0 mm 0.00 in0.0 mm 0.00 in0.0 mm
09:05 AM 67.5°F19.7°C 57.8°F14.3°C 71% 2.2 mph S3.5 kmh S 3.1 mph5.0 kmh 30.20 in1022.7 mb 0.00 in0.0 mm 0.00 in0.0 mm 0.00 in0.0 mm
09:10 AM 68.2°F20.1°C 58.0°F14.4°C 70% 0.7 mph S1.1 kmh S 3.1 mph5.0 kmh 30.20 in1022.7 mb 0.00 in0.0 mm 0.00 in0.0 mm 0.00 in0.0 mm
09:15 AM 68.4°F20.2°C 57.8°F14.3°C 69% 3.8 mph WSW6.1 kmh WSW 4.5 mph7.2 kmh 30.20 in1022.7 mb 0.00 in0.0 mm 0.00 in0.0 mm 0.00 in0.0 mm
09:20 AM 68.5°F20.3°C 57.6°F14.2°C 68% 1.6 mph SW2.6 kmh SW 4.5 mph7.2 kmh 30.20 in1022.7 mb 0.00 in0.0 mm 0.00 in0.0 mm 0.00 in0.0 mm
09:25 AM 68.9°F20.5°C 57.9°F14.4°C 68% 1.6 mph SW2.6 kmh SW 4.5 mph7.2 kmh 30.19 in1022.4 mb 0.00 in0.0 mm 0.00 in0.0 mm 0.00 in0.0 mm
09:30 AM 69.4°F20.8°C 58.0°F14.4°C 67% 1.6 mph SW2.6 kmh SW 3.8 mph6.1 kmh 30.20 in1022.7 mb 0.00 in0.0 mm 0.00 in0.0 mm 0.00 in0.0 mm
09:35 AM 69.8°F21.0°C 57.5°F14.2°C 65% 1.6 mph SW2.6 kmh SW 3.8 mph6.1 kmh 30.19 in1022.4 mb 0.00 in0.0 mm 0.00 in0.0 mm 0.00 in0.0 mm
09:40 AM 70.2°F21.2°C 57.4°F14.1°C 64% 3.1 mph SSW5.0 kmh SSW 3.8 mph6.1 kmh 30.20 in1022.7 mb 0.00 in0.0 mm 0.00 in0.0 mm 0.00 in0.0 mm
09:45 AM 70.7°F21.5°C 57.5°F14.2°C 63% 3.1 mph S5.0 kmh S 4.5 mph7.2 kmh 30.19 in1022.4 mb 0.00 in0.0 mm 0.00 in0.0 mm 0.00 in0.0 mm
09:50 AM 71.4°F21.9°C 57.7°F14.3°C 62% 2.2 mph SSW3.5 kmh SSW 4.5 mph7.2 kmh 30.20 in1022.7 mb 0.00 in0.0 mm 0.00 in0.0 mm 0.00 in0.0 mm
09:55 AM 72.0°F22.2°C 56.9°F13.8°C 59% 2.2 mph SW3.5 kmh SW 3.8 mph6.1 kmh 30.19 in1022.4 mb 0.00 in0.0 mm 0.00 in0.0 mm 0.00 in0.0 mm
10:00 AM 72.5°F22.5°C 56.9°F13.8°C 58% 1.6 mph S2.6 kmh S 3.8 mph6.1 kmh 30.19 in1022.4 mb 0.00 in0.0 mm 0.00 in0.0 mm 0.00 in0.0 mm
10:05 AM 73.2°F22.9°C 57.1°F13.9°C 57% 2.2 mph S3.5 kmh S 4.5 mph7.2 kmh 30.19 in1022.4 mb 0.00 in0.0 mm 0.00 in0.0 mm 0.00 in0.0 mm
10:10 AM 73.4°F23.0°C 56.3°F13.5°C 55% 0.7 mph SSW1.1 kmh SSW 4.5 mph7.2 kmh 30.19 in1022.4 mb 0.00 in0.0 mm 0.00 in0.0 mm 0.00 in0.0 mm
10:15 AM 73.6°F23.1°C 56.4°F13.6°C 55% 3.1 mph W5.0 kmh W 4.5 mph7.2 kmh 30.19 in1022.4 mb 0.00 in0.0 mm 0.00 in0.0 mm 0.00 in0.0 mm
10:20 AM 73.6°F23.1°C 55.9°F13.3°C 54% 0.7 mph SW1.1 kmh SW 4.5 mph7.2 kmh 30.19 in1022.4 mb 0.00 in0.0 mm 0.00 in0.0 mm 0.00 in0.0 mm
10:25 AM 74.5°F23.6°C 57.3°F14.1°C 55% 3.8 mph WSW6.1 kmh WSW 6.0 mph9.7 kmh 30.19 in1022.4 mb 0.00 in0.0 mm 0.00 in0.0 mm 0.00 in0.0 mm
10:30 AM 74.3°F23.5°C 56.1°F13.4°C 53% Calm Calm 6.0 mph9.7 kmh 30.19 in1022.4 mb 0.00 in0.0 mm 0.00 in0.0 mm 0.00 in0.0 mm
10:35 AM 74.8°F23.8°C 56.6°F13.7°C 53% 2.2 mph WSW3.5 kmh WSW 4.5 mph7.2 kmh 30.19 in1022.4 mb 0.00 in0.0 mm 0.00 in0.0 mm 0.00 in0.0 mm
10:40 AM 75.2°F24.0°C 55.3°F12.9°C 50% 1.6 mph SW2.6 kmh SW 3.1 mph5.0 kmh 30.19 in1022.4 mb 0.00 in0.0 mm 0.00 in0.0 mm 0.00 in0.0 mm
10:45 AM 75.7°F24.3°C 54.7°F12.6°C 48% 0.7 mph SSW1.1 kmh SSW 3.1 mph5.0 kmh 30.19 in1022.4 mb 0.00 in0.0 mm 0.00 in0.0 mm 0.00 in0.0 mm
10:50 AM 76.5°F24.7°C 54.8°F12.7°C 47% Calm Calm 3.8 mph6.1 kmh 30.18 in1022.0 mb 0.00 in0.0 mm 0.00 in0.0 mm 0.00 in0.0 mm
10:55 AM 77.0°F25.0°C 54.7°F12.6°C 46% 1.6 mph WSW2.6 kmh WSW 3.8 mph6.1 kmh 30.18 in1022.0 mb 0.00 in0.0 mm 0.00 in0.0 mm 0.00 in0.0 mm
11:00 AM 77.4°F25.2°C 54.4°F12.4°C 45% 1.6 mph SSW2.6 kmh SSW 3.8 mph6.1 kmh 30.18 in1022.0 mb 0.00 in0.0 mm 0.00 in0.0 mm 0.00 in0.0 mm
11:05 AM 77.4°F25.2°C 54.4°F12.4°C 45% 1.6 mph S2.6 kmh S 3.8 mph6.1 kmh 30.17 in1021.7 mb 0.00 in0.0 mm 0.00 in0.0 mm 0.00 in0.0 mm
11:10 AM 78.1°F25.6°C 55.0°F12.8°C 45% 0.7 mph SSW1.1 kmh SSW 6.9 mph11.1 kmh 30.17 in1021.7 mb 0.00 in0.0 mm 0.00 in0.0 mm 0.00 in0.0 mm
11:15 AM 78.3°F25.7°C 55.8°F13.2°C 46% 0.7 mph SW1.1 kmh SW 6.9 mph11.1 kmh 30.17 in1021.7 mb 0.00 in0.0 mm 0.00 in0.0 mm 0.00 in0.0 mm
11:20 AM 78.4°F25.8°C 54.8°F12.7°C 44% 0.7 mph SW1.1 kmh SW 3.1 mph5.0 kmh 30.17 in1021.7 mb 0.00 in0.0 mm 0.00 in0.0 mm 0.00 in0.0 mm
11:25 AM 78.6°F25.9°C 54.3°F12.4°C 43% 0.7 mph SSW1.1 kmh SSW 4.5 mph7.2 kmh 30.17 in1021.7 mb 0.00 in0.0 mm 0.00 in0.0 mm 0.00 in0.0 mm
11:30 AM 78.8°F26.0°C 55.1°F12.8°C 44% 0.7 mph SSW1.1 kmh SSW 4.5 mph7.2 kmh 30.17 in1021.7 mb 0.00 in0.0 mm 0.00 in0.0 mm 0.00 in0.0 mm
11:35 AM 79.2°F26.2°C 54.8°F12.7°C 43% 1.6 mph SW2.6 kmh SW 4.5 mph7.2 kmh 30.16 in1021.3 mb 0.00 in0.0 mm 0.00 in0.0 mm 0.00 in0.0 mm
11:40 AM 79.3°F26.3°C 54.3°F12.4°C 42% 3.1 mph SSW5.0 kmh SSW 4.5 mph7.2 kmh 30.16 in1021.3 mb 0.00 in0.0 mm 0.00 in0.0 mm 0.00 in0.0 mm
11:45 AM 79.9°F26.6°C 55.4°F13.0°C 43% 3.1 mph S5.0 kmh S 5.4 mph8.7 kmh 30.16 in1021.3 mb 0.00 in0.0 mm 0.00 in0.0 mm 0.00 in0.0 mm
11:50 AM 80.4°F26.9°C 56.6°F13.7°C 44% 2.2 mph WSW3.5 kmh WSW 5.4 mph8.7 kmh 30.16 in1021.3 mb 0.00 in0.0 mm 0.00 in0.0 mm 0.00 in0.0 mm
11:55 AM 81.0°F27.2°C 55.8°F13.2°C 42% 0.7 mph WNW1.1 kmh WNW 5.4 mph8.7 kmh 30.16 in1021.3 mb 0.00 in0.0 mm 0.00 in0.0 mm 0.00 in0.0 mm
12:00 PM 81.3°F27.4°C 55.4°F13.0°C 41% 0.7 mph W1.1 kmh W 3.8 mph6.1 kmh 30.16 in1021.3 mb 0.00 in0.0 mm 0.00 in0.0 mm 0.00 in0.0 mm
12:05 PM 81.9°F27.7°C 56.6°F13.7°C 42% 3.1 mph NW5.0 kmh NW 5.4 mph8.7 kmh 30.16 in1021.3 mb 0.00 in0.0 mm 0.00 in0.0 mm 0.00 in0.0 mm
12:10 PM 82.4°F28.0°C 57.0°F13.9°C 42% 3.8 mph NW6.1 kmh NW 5.4 mph8.7 kmh 30.16 in1021.3 mb 0.00 in0.0 mm 0.00 in0.0 mm 0.00 in0.0 mm
12:15 PM 82.6°F28.1°C 55.2°F12.9°C 39% 3.1 mph W5.0 kmh W 5.4 mph8.7 kmh 30.15 in1021.0 mb 0.00 in0.0 mm 0.00 in0.0 mm 0.00 in0.0 mm
12:20 PM 82.8°F28.2°C 54.6°F12.6°C 38% 2.2 mph WSW3.5 kmh WSW 5.4 mph8.7 kmh 30.15 in1021.0 mb 0.00 in0.0 mm 0.00 in0.0 mm 0.00 in0.0 mm
12:25 PM 83.5°F28.6°C 56.0°F13.3°C 39% 3.8 mph WSW6.1 kmh WSW 5.4 mph8.7 kmh 30.15 in1021.0 mb 0.00 in0.0 mm 0.00 in0.0 mm 0.00 in0.0 mm
12:30 PM 83.7°F28.7°C 54.7°F12.6°C 37% 1.6 mph WSW2.6 kmh WSW 6.9 mph11.1 kmh 30.14 in1020.7 mb 0.00 in0.0 mm 0.00 in0.0 mm 0.00 in0.0 mm
12:35 PM 83.7°F28.7°C 54.7°F12.6°C 37% 1.6 mph SW2.6 kmh SW 6.9 mph11.1 kmh 30.14 in1020.7 mb 0.00 in0.0 mm 0.00 in0.0 mm 0.00 in0.0 mm
12:40 PM 84.2°F29.0°C 54.4°F12.4°C 36% 3.1 mph SW5.0 kmh SW 6.0 mph9.7 kmh 30.14 in1020.7 mb 0.00 in0.0 mm 0.00 in0.0 mm 0.00 in0.0 mm
12:45 PM 84.6°F29.2°C 55.5°F13.1°C 37% 3.1 mph WNW5.0 kmh WNW 6.0 mph9.7 kmh 30.14 in1020.7 mb 0.00 in0.0 mm 0.00 in0.0 mm 0.00 in0.0 mm
12:50 PM 85.1°F29.5°C 55.9°F13.3°C 37% 2.2 mph NW3.5 kmh NW 6.0 mph9.7 kmh 30.14 in1020.7 mb 0.00 in0.0 mm 0.00 in0.0 mm 0.00 in0.0 mm
12:55 PM 85.5°F29.7°C 55.5°F13.1°C 36% 2.2 mph NW3.5 kmh NW 5.4 mph8.7 kmh 30.14 in1020.7 mb 0.00 in0.0 mm 0.00 in0.0 mm 0.00 in0.0 mm
01:00 PM 86.0°F30.0°C 55.2°F12.9°C 35% 2.2 mph WNW3.5 kmh WNW 4.5 mph7.2 kmh 30.13 in1020.3 mb 0.00 in0.0 mm 0.00 in0.0 mm 0.00 in0.0 mm
01:05 PM 86.0°F30.0°C 55.2°F12.9°C 35% 2.2 mph W3.5 kmh W 4.5 mph7.2 kmh 30.13 in1020.3 mb 0.00 in0.0 mm 0.00 in0.0 mm 0.00 in0.0 mm
01:10 PM 86.9°F30.5°C 56.0°F13.3°C 35% 2.2 mph W3.5 kmh W 5.4 mph8.7 kmh 30.14 in1020.7 mb 0.00 in0.0 mm 0.00 in0.0 mm 0.00 in0.0 mm
01:15 PM 86.9°F30.5°C 54.4°F12.4°C 33% 2.2 mph W3.5 kmh W 5.4 mph8.7 kmh 30.13 in1020.3 mb 0.00 in0.0 mm 0.00 in0.0 mm 0.00 in0.0 mm
01:20 PM 87.4°F30.8°C 57.3°F14.1°C 36% 2.2 mph WNW3.5 kmh WNW 6.0 mph9.7 kmh 30.13 in1020.3 mb 0.00 in0.0 mm 0.00 in0.0 mm 0.00 in0.0 mm
01:25 PM 87.6°F30.9°C 56.6°F13.7°C 35% 6.0 mph NW9.7 kmh NW 7.6 mph12.2 kmh 30.12 in1020.0 mb 0.00 in0.0 mm 0.00 in0.0 mm 0.00 in0.0 mm
01:30 PM 87.8°F31.0°C 55.2°F12.9°C 33% 4.5 mph NW7.2 kmh NW 7.6 mph12.2 kmh 30.12 in1020.0 mb 0.00 in0.0 mm 0.00 in0.0 mm 0.00 in0.0 mm
01:35 PM 87.6°F30.9°C 55.8°F13.2°C 34% 1.6 mph NW2.6 kmh NW 6.0 mph9.7 kmh 30.12 in1020.0 mb 0.00 in0.0 mm 0.00 in0.0 mm 0.00 in0.0 mm
01:40 PM 88.2°F31.2°C 54.6°F12.6°C 32% 1.6 mph WSW2.6 kmh WSW 6.0 mph9.7 kmh 30.11 in1019.6 mb 0.00 in0.0 mm 0.00 in0.0 mm 0.00 in0.0 mm
01:45 PM 88.5°F31.4°C 55.0°F12.8°C 32% 3.1 mph SW5.0 kmh SW 6.0 mph9.7 kmh 30.12 in1020.0 mb 0.00 in0.0 mm 0.00 in0.0 mm 0.00 in0.0 mm
01:50 PM 89.1°F31.7°C 56.3°F13.5°C 33% 2.2 mph WSW3.5 kmh WSW 5.4 mph8.7 kmh 30.11 in1019.6 mb 0.00 in0.0 mm 0.00 in0.0 mm 0.00 in0.0 mm
01:55 PM 89.1°F31.7°C 55.4°F13.0°C 32% 2.2 mph W3.5 kmh W 5.4 mph8.7 kmh 30.11 in1019.6 mb 0.00 in0.0 mm 0.00 in0.0 mm 0.00 in0.0 mm
02:00 PM 89.2°F31.8°C 56.4°F13.6°C 33% 1.6 mph NW2.6 kmh NW 5.4 mph8.7 kmh 30.11 in1019.6 mb 0.00 in0.0 mm 0.00 in0.0 mm 0.00 in0.0 mm
02:05 PM 89.6°F32.0°C 53.2°F11.8°C 29% 2.2 mph NNW3.5 kmh NNW 6.0 mph9.7 kmh 30.11 in1019.6 mb 0.00 in0.0 mm 0.00 in0.0 mm 0.00 in0.0 mm
02:10 PM 89.8°F32.1°C 55.2°F12.9°C 31% 3.8 mph WNW6.1 kmh WNW 7.6 mph12.2 kmh 30.11 in1019.6 mb 0.00 in0.0 mm 0.00 in0.0 mm 0.00 in0.0 mm
02:15 PM 89.8°F32.1°C 54.3°F12.4°C 30% 2.2 mph W3.5 kmh W 7.6 mph12.2 kmh 30.11 in1019.6 mb 0.00 in0.0 mm 0.00 in0.0 mm 0.00 in0.0 mm
02:20 PM 90.1°F32.3°C 55.5°F13.1°C 31% 3.8 mph WSW6.1 kmh WSW 8.3 mph13.4 kmh 30.11 in1019.6 mb 0.00 in0.0 mm 0.00 in0.0 mm 0.00 in0.0 mm
02:25 PM 90.5°F32.5°C 48.8°F9.3°C 24% 3.1 mph SW5.0 kmh SW 8.3 mph13.4 kmh 30.10 in1019.3 mb 0.00 in0.0 mm 0.00 in0.0 mm 0.00 in0.0 mm
02:30 PM 90.7°F32.6°C 52.2°F11.2°C 27% 6.9 mph W11.1 kmh W 8.3 mph13.4 kmh 30.09 in1019.0 mb 0.00 in0.0 mm 0.00 in0.0 mm 0.00 in0.0 mm
02:35 PM 90.9°F32.7°C 50.2°F10.1°C 25% 3.8 mph W6.1 kmh W 8.3 mph13.4 kmh 30.09 in1019.0 mb 0.00 in0.0 mm 0.00 in0.0 mm 0.00 in0.0 mm
02:40 PM 90.9°F32.7°C 49.1°F9.5°C 24% 2.2 mph W3.5 kmh W 9.2 mph14.8 kmh 30.09 in1019.0 mb 0.00 in0.0 mm 0.00 in0.0 mm 0.00 in0.0 mm
02:45 PM 91.2°F32.9°C 49.4°F9.7°C 24% 3.8 mph W6.1 kmh W 9.2 mph14.8 kmh 30.09 in1019.0 mb 0.00 in0.0 mm 0.00 in0.0 mm 0.00 in0.0 mm
02:50 PM 91.4°F33.0°C 51.8°F11.0°C 26% 4.5 mph WNW7.2 kmh WNW 8.3 mph13.4 kmh 30.09 in1019.0 mb 0.00 in0.0 mm 0.00 in0.0 mm 0.00 in0.0 mm
02:55 PM 91.6°F33.1°C 52.9°F11.6°C 27% 6.0 mph NW9.7 kmh NW 8.3 mph13.4 kmh 30.10 in1019.3 mb 0.00 in0.0 mm 0.00 in0.0 mm 0.00 in0.0 mm
03:00 PM 91.6°F33.1°C 50.8°F10.4°C 25% 0.7 mph WNW1.1 kmh WNW 8.3 mph13.4 kmh 30.09 in1019.0 mb 0.00 in0.0 mm 0.00 in0.0 mm 0.00 in0.0 mm
03:05 PM 91.6°F33.1°C 50.8°F10.4°C 25% 0.7 mph NW1.1 kmh NW 8.3 mph13.4 kmh 30.09 in1019.0 mb 0.00 in0.0 mm 0.00 in0.0 mm 0.00 in0.0 mm
03:10 PM 91.9°F33.3°C 52.2°F11.2°C 26% 2.2 mph WNW3.5 kmh WNW 7.6 mph12.2 kmh 30.09 in1019.0 mb 0.00 in0.0 mm 0.00 in0.0 mm 0.00 in0.0 mm
03:15 PM 92.3°F33.5°C 51.5°F10.8°C 25% 4.5 mph WSW7.2 kmh WSW 9.8 mph15.8 kmh 30.09 in1019.0 mb 0.00 in0.0 mm 0.00 in0.0 mm 0.00 in0.0 mm
03:20 PM 91.9°F33.3°C 52.2°F11.2°C 26% 3.1 mph SW5.0 kmh SW 9.8 mph15.8 kmh 30.09 in1019.0 mb 0.00 in0.0 mm 0.00 in0.0 mm 0.00 in0.0 mm
03:25 PM 92.3°F33.5°C 53.5°F11.9°C 27% 1.6 mph W2.6 kmh W 8.3 mph13.4 kmh 30.09 in1019.0 mb 0.00 in0.0 mm 0.00 in0.0 mm 0.00 in0.0 mm
03:30 PM 92.8°F33.8°C 53.0°F11.7°C 26% 3.1 mph WNW5.0 kmh WNW 9.2 mph14.8 kmh 30.09 in1019.0 mb 0.00 in0.0 mm 0.00 in0.0 mm 0.00 in0.0 mm
03:35 PM 92.8°F33.8°C 51.9°F11.1°C 25% 4.5 mph WSW7.2 kmh WSW 9.2 mph14.8 kmh 30.09 in1019.0 mb 0.00 in0.0 mm 0.00 in0.0 mm 0.00 in0.0 mm
03:40 PM 92.5°F33.6°C 51.6°F10.9°C 25% 1.6 mph S2.6 kmh S 7.6 mph12.2 kmh 30.09 in1019.0 mb 0.00 in0.0 mm 0.00 in0.0 mm 0.00 in0.0 mm
03:45 PM 92.8°F33.8°C 53.0°F11.7°C 26% 2.2 mph S3.5 kmh S 7.6 mph12.2 kmh 30.09 in1019.0 mb 0.00 in0.0 mm 0.00 in0.0 mm 0.00 in0.0 mm
03:50 PM 93.2°F34.0°C 53.3°F11.8°C 26% 6.9 mph W11.1 kmh W 9.2 mph14.8 kmh 30.09 in1019.0 mb 0.00 in0.0 mm 0.00 in0.0 mm 0.00 in0.0 mm
03:55 PM 92.3°F33.5°C 51.5°F10.8°C 25% 3.1 mph WNW5.0 kmh WNW 9.2 mph14.8 kmh 30.09 in1019.0 mb 0.00 in0.0 mm 0.00 in0.0 mm 0.00 in0.0 mm
04:00 PM 91.9°F33.3°C 53.2°F11.8°C 27% 4.5 mph WNW7.2 kmh WNW 7.6 mph12.2 kmh 30.09 in1019.0 mb 0.00 in0.0 mm 0.00 in0.0 mm 0.00 in0.0 mm
04:05 PM 91.9°F33.3°C 52.2°F11.2°C 26% 3.1 mph WNW5.0 kmh WNW 7.6 mph12.2 kmh 30.09 in1019.0 mb 0.00 in0.0 mm 0.00 in0.0 mm 0.00 in0.0 mm
04:10 PM 92.3°F33.5°C 52.5°F11.4°C 26% 4.5 mph W7.2 kmh W 6.9 mph11.1 kmh 30.08 in1018.6 mb 0.00 in0.0 mm 0.00 in0.0 mm 0.00 in0.0 mm
04:15 PM 92.5°F33.6°C 51.6°F10.9°C 25% 6.0 mph SW9.7 kmh SW 8.3 mph13.4 kmh 30.08 in1018.6 mb 0.00 in0.0 mm 0.00 in0.0 mm 0.00 in0.0 mm
04:20 PM 92.3°F33.5°C 51.5°F10.8°C 25% 3.1 mph SSW5.0 kmh SSW 9.2 mph14.8 kmh 30.08 in1018.6 mb 0.00 in0.0 mm 0.00 in0.0 mm 0.00 in0.0 mm
04:25 PM 92.3°F33.5°C 53.5°F11.9°C 27% 4.5 mph W7.2 kmh W 9.2 mph14.8 kmh 30.08 in1018.6 mb 0.00 in0.0 mm 0.00 in0.0 mm 0.00 in0.0 mm
04:30 PM 92.5°F33.6°C 53.7°F12.1°C 27% 3.1 mph WNW5.0 kmh WNW 7.6 mph12.2 kmh 30.08 in1018.6 mb 0.00 in0.0 mm 0.00 in0.0 mm 0.00 in0.0 mm
04:35 PM 92.7°F33.7°C 51.8°F11.0°C 25% Calm Calm 6.9 mph11.1 kmh 30.07 in1018.3 mb 0.00 in0.0 mm 0.00 in0.0 mm 0.00 in0.0 mm
04:40 PM 93.0°F33.9°C 54.2°F12.3°C 27% 3.8 mph NW6.1 kmh NW 7.6 mph12.2 kmh 30.07 in1018.3 mb 0.00 in0.0 mm 0.00 in0.0 mm 0.00 in0.0 mm
04:45 PM 93.0°F33.9°C 54.2°F12.3°C 27% 4.5 mph NNW7.2 kmh NNW 7.6 mph12.2 kmh 30.08 in1018.6 mb 0.00 in0.0 mm 0.00 in0.0 mm 0.00 in0.0 mm
04:50 PM 93.2°F34.0°C 53.3°F11.8°C 26% 3.1 mph N5.0 kmh N 6.0 mph9.7 kmh 30.08 in1018.6 mb 0.00 in0.0 mm 0.00 in0.0 mm 0.00 in0.0 mm
04:55 PM 93.4°F34.1°C 53.4°F11.9°C 26% 3.1 mph N5.0 kmh N 6.0 mph9.7 kmh 30.07 in1018.3 mb 0.00 in0.0 mm 0.00 in0.0 mm 0.00 in0.0 mm
05:00 PM 93.6°F34.2°C 53.6°F12.0°C 26% 4.5 mph NNW7.2 kmh NNW 6.0 mph9.7 kmh 30.07 in1018.3 mb 0.00 in0.0 mm 0.00 in0.0 mm 0.00 in0.0 mm
05:05 PM 93.6°F34.2°C 53.6°F12.0°C 26% 4.5 mph WNW7.2 kmh WNW 6.0 mph9.7 kmh 30.07 in1018.3 mb 0.00 in0.0 mm 0.00 in0.0 mm 0.00 in0.0 mm
05:10 PM 93.2°F34.0°C 52.2°F11.2°C 25% 5.4 mph WNW8.7 kmh WNW 6.9 mph11.1 kmh 30.07 in1018.3 mb 0.00 in0.0 mm 0.00 in0.0 mm 0.00 in0.0 mm
05:15 PM 93.4°F34.1°C 53.4°F11.9°C 26% 2.2 mph NW3.5 kmh NW 6.9 mph11.1 kmh 30.07 in1018.3 mb 0.00 in0.0 mm 0.00 in0.0 mm 0.00 in0.0 mm
05:20 PM 93.4°F34.1°C 53.4°F11.9°C 26% 3.8 mph NW6.1 kmh NW 6.0 mph9.7 kmh 30.07 in1018.3 mb 0.00 in0.0 mm 0.00 in0.0 mm 0.00 in0.0 mm
05:25 PM 93.4°F34.1°C 53.4°F11.9°C 26% 3.1 mph NW5.0 kmh NW 6.0 mph9.7 kmh 30.07 in1018.3 mb 0.00 in0.0 mm 0.00 in0.0 mm 0.00 in0.0 mm
05:30 PM 93.4°F34.1°C 53.4°F11.9°C 26% 3.1 mph NNW5.0 kmh NNW 6.0 mph9.7 kmh 30.07 in1018.3 mb 0.00 in0.0 mm 0.00 in0.0 mm 0.00 in0.0 mm
05:35 PM 93.2°F34.0°C 53.3°F11.8°C 26% Calm Calm 5.4 mph8.7 kmh 30.07 in1018.3 mb 0.00 in0.0 mm 0.00 in0.0 mm 0.00 in0.0 mm
05:40 PM 93.4°F34.1°C 53.4°F11.9°C 26% 1.6 mph N2.6 kmh N 4.5 mph7.2 kmh 30.07 in1018.3 mb 0.00 in0.0 mm 0.00 in0.0 mm 0.00 in0.0 mm
05:45 PM 93.4°F34.1°C 55.5°F13.1°C 28% 0.7 mph N1.1 kmh N 3.8 mph6.1 kmh 30.07 in1018.3 mb 0.00 in0.0 mm 0.00 in0.0 mm 0.00 in0.0 mm
05:50 PM 93.7°F34.3°C 54.8°F12.7°C 27% 1.6 mph NW2.6 kmh NW 3.8 mph6.1 kmh 30.06 in1017.9 mb 0.00 in0.0 mm 0.00 in0.0 mm 0.00 in0.0 mm
05:55 PM 93.6°F34.2°C 55.6°F13.1°C 28% 1.6 mph N2.6 kmh N 3.8 mph6.1 kmh 30.06 in1017.9 mb 0.00 in0.0 mm 0.00 in0.0 mm 0.00 in0.0 mm
06:00 PM 93.6°F34.2°C 53.6°F12.0°C 26% 3.8 mph N6.1 kmh N 5.4 mph8.7 kmh 30.06 in1017.9 mb 0.00 in0.0 mm 0.00 in0.0 mm 0.00 in0.0 mm
06:05 PM 92.8°F33.8°C 53.0°F11.7°C 26% 1.6 mph N2.6 kmh N 5.4 mph8.7 kmh 30.06 in1017.9 mb 0.00 in0.0 mm 0.00 in0.0 mm 0.00 in0.0 mm
06:10 PM 92.5°F33.6°C 53.7°F12.1°C 27% 1.6 mph N2.6 kmh N 5.4 mph8.7 kmh 30.06 in1017.9 mb 0.00 in0.0 mm 0.00 in0.0 mm 0.00 in0.0 mm
06:15 PM 92.1°F33.4°C 56.3°F13.5°C 30% 3.1 mph N5.0 kmh N 5.4 mph8.7 kmh 30.06 in1017.9 mb 0.00 in0.0 mm 0.00 in0.0 mm 0.00 in0.0 mm
06:20 PM 91.9°F33.3°C 55.2°F12.9°C 29% 3.1 mph NW5.0 kmh NW 6.0 mph9.7 kmh 30.06 in1017.9 mb 0.00 in0.0 mm 0.00 in0.0 mm 0.00 in0.0 mm
06:25 PM 91.9°F33.3°C 54.2°F12.3°C 28% 3.8 mph NW6.1 kmh NW 6.0 mph9.7 kmh 30.06 in1017.9 mb 0.00 in0.0 mm 0.00 in0.0 mm 0.00 in0.0 mm
06:30 PM 91.9°F33.3°C 55.2°F12.9°C 29% 2.2 mph NW3.5 kmh NW 5.4 mph8.7 kmh 30.06 in1017.9 mb 0.00 in0.0 mm 0.00 in0.0 mm 0.00 in0.0 mm
06:35 PM 91.8°F33.2°C 56.0°F13.3°C 30% 2.2 mph NW3.5 kmh NW 5.4 mph8.7 kmh 30.06 in1017.9 mb 0.00 in0.0 mm 0.00 in0.0 mm 0.00 in0.0 mm
06:40 PM 91.6°F33.1°C 55.8°F13.2°C 30% 3.1 mph NW5.0 kmh NW 4.5 mph7.2 kmh 30.05 in1017.6 mb 0.00 in0.0 mm 0.00 in0.0 mm 0.00 in0.0 mm
06:45 PM 91.4°F33.0°C 54.7°F12.6°C 29% 1.6 mph NW2.6 kmh NW 4.5 mph7.2 kmh 30.05 in1017.6 mb 0.00 in0.0 mm 0.00 in0.0 mm 0.00 in0.0 mm
06:50 PM 91.2°F32.9°C 51.6°F10.9°C 26% 3.1 mph NW5.0 kmh NW 4.5 mph7.2 kmh 30.06 in1017.9 mb 0.00 in0.0 mm 0.00 in0.0 mm 0.00 in0.0 mm
06:55 PM 90.7°F32.6°C 51.1°F10.6°C 26% 2.2 mph NW3.5 kmh NW 4.5 mph7.2 kmh 30.05 in1017.6 mb 0.00 in0.0 mm 0.00 in0.0 mm 0.00 in0.0 mm
07:00 PM 90.5°F32.5°C 53.0°F11.7°C 28% Calm Calm 3.8 mph6.1 kmh 30.05 in1017.6 mb 0.00 in0.0 mm 0.00 in0.0 mm 0.00 in0.0 mm
07:05 PM 90.5°F32.5°C 53.0°F11.7°C 28% Calm Calm 3.1 mph5.0 kmh 30.05 in1017.6 mb 0.00 in0.0 mm 0.00 in0.0 mm 0.00 in0.0 mm
07:10 PM 89.8°F32.1°C 56.9°F13.8°C 33% Calm Calm 1.6 mph2.6 kmh 30.06 in1017.9 mb 0.00 in0.0 mm 0.00 in0.0 mm 0.00 in0.0 mm
07:15 PM 89.1°F31.7°C 57.9°F14.4°C 35% Calm Calm 1.6 mph2.6 kmh 30.06 in1017.9 mb 0.00 in0.0 mm 0.00 in0.0 mm 0.00 in0.0 mm
07:20 PM 88.3°F31.3°C 58.8°F14.9°C 37% Calm Calm -- 30.06 in1017.9 mb 0.00 in0.0 mm 0.00 in0.0 mm 0.00 in0.0 mm
07:25 PM 87.4°F30.8°C 58.8°F14.9°C 38% Calm Calm -- 30.05 in1017.6 mb 0.00 in0.0 mm 0.00 in0.0 mm 0.00 in0.0 mm
07:30 PM 86.7°F30.4°C 59.6°F15.3°C 40% Calm Calm -- 30.05 in1017.6 mb 0.00 in0.0 mm 0.00 in0.0 mm 0.00 in0.0 mm
07:35 PM 85.6°F29.8°C 60.0°F15.6°C 42% Calm Calm -- 30.05 in1017.6 mb 0.00 in0.0 mm 0.00 in0.0 mm 0.00 in0.0 mm
07:40 PM 84.7°F29.3°C 59.8°F15.4°C 43% Calm Calm -- 30.05 in1017.6 mb 0.00 in0.0 mm 0.00 in0.0 mm 0.00 in0.0 mm
07:45 PM 83.8°F28.8°C 60.3°F15.7°C 45% 0.7 mph E1.1 kmh E 2.2 mph3.5 kmh 30.05 in1017.6 mb 0.00 in0.0 mm 0.00 in0.0 mm 0.00 in0.0 mm
07:50 PM 82.9°F28.3°C 59.5°F15.3°C 45% 1.6 mph E2.6 kmh E 2.2 mph3.5 kmh 30.05 in1017.6 mb 0.00 in0.0 mm 0.00 in0.0 mm 0.00 in0.0 mm
07:55 PM 82.0°F27.8°C 57.4°F14.1°C 43% 3.8 mph E6.1 kmh E 6.0 mph9.7 kmh 30.06 in1017.9 mb 0.00 in0.0 mm 0.00 in0.0 mm 0.00 in0.0 mm
08:00 PM 81.3°F27.4°C 56.1°F13.4°C 42% 4.5 mph E7.2 kmh E 7.6 mph12.2 kmh 30.06 in1017.9 mb 0.00 in0.0 mm 0.00 in0.0 mm 0.00 in0.0 mm
08:05 PM 81.1°F27.3°C 48.5°F9.2°C 32% 7.6 mph ESE12.2 kmh ESE 12.1 mph19.5 kmh 30.06 in1017.9 mb 0.00 in0.0 mm 0.00 in0.0 mm 0.00 in0.0 mm
08:10 PM 81.9°F27.7°C 40.5°F4.7°C 23% 10.7 mph ESE17.2 kmh ESE 13.0 mph20.9 kmh 30.06 in1017.9 mb 0.00 in0.0 mm 0.00 in0.0 mm 0.00 in0.0 mm
08:15 PM 82.2°F27.9°C 39.6°F4.2°C 22% 6.9 mph SE11.1 kmh SE 13.0 mph20.9 kmh 30.06 in1017.9 mb 0.00 in0.0 mm 0.00 in0.0 mm 0.00 in0.0 mm
08:20 PM 82.6°F28.1°C 41.1°F5.1°C 23% 5.4 mph SE8.7 kmh SE 13.6 mph21.9 kmh 30.06 in1017.9 mb 0.00 in0.0 mm 0.00 in0.0 mm 0.00 in0.0 mm
08:25 PM 82.6°F28.1°C 41.1°F5.1°C 23% 5.4 mph SE8.7 kmh SE 13.6 mph21.9 kmh 30.06 in1017.9 mb 0.00 in0.0 mm 0.00 in0.0 mm 0.00 in0.0 mm
08:30 PM 82.4°F28.0°C 39.8°F4.3°C 22% 5.4 mph SE8.7 kmh SE 9.8 mph15.8 kmh 30.07 in1018.3 mb 0.00 in0.0 mm 0.00 in0.0 mm 0.00 in0.0 mm
08:35 PM 82.2°F27.9°C 34.5°F1.4°C 18% 4.5 mph SE7.2 kmh SE 8.3 mph13.4 kmh 30.06 in1017.9 mb 0.00 in0.0 mm 0.00 in0.0 mm 0.00 in0.0 mm
08:40 PM 81.9°F27.7°C 35.6°F2.0°C 19% 5.4 mph SE8.7 kmh SE 8.3 mph13.4 kmh 30.07 in1018.3 mb 0.00 in0.0 mm 0.00 in0.0 mm 0.00 in0.0 mm
08:45 PM 81.5°F27.5°C 34.0°F1.1°C 18% 3.1 mph SE5.0 kmh SE 8.3 mph13.4 kmh 30.07 in1018.3 mb 0.00 in0.0 mm 0.00 in0.0 mm 0.00 in0.0 mm
08:50 PM 81.1°F27.3°C 35.0°F1.7°C 19% 4.5 mph ESE7.2 kmh ESE 8.3 mph13.4 kmh 30.07 in1018.3 mb 0.00 in0.0 mm 0.00 in0.0 mm 0.00 in0.0 mm
08:55 PM 81.0°F27.2°C 34.9°F1.6°C 19% 4.5 mph E7.2 kmh E 7.6 mph12.2 kmh 30.07 in1018.3 mb 0.00 in0.0 mm 0.00 in0.0 mm 0.00 in0.0 mm
09:00 PM 80.6°F27.0°C 34.6°F1.4°C 19% 1.6 mph E2.6 kmh E 6.9 mph11.1 kmh 30.07 in1018.3 mb 0.00 in0.0 mm 0.00 in0.0 mm 0.00 in0.0 mm
09:05 PM 80.6°F27.0°C 34.6°F1.4°C 19% 1.6 mph NE2.6 kmh NE 6.9 mph11.1 kmh 30.07 in1018.3 mb 0.00 in0.0 mm 0.00 in0.0 mm 0.00 in0.0 mm
09:10 PM 79.2°F26.2°C 38.2°F3.4°C 23% 1.6 mph N2.6 kmh N 5.4 mph8.7 kmh 30.07 in1018.3 mb 0.00 in0.0 mm 0.00 in0.0 mm 0.00 in0.0 mm
09:15 PM 78.3°F25.7°C 39.6°F4.2°C 25% 2.2 mph N3.5 kmh N 6.0 mph9.7 kmh 30.08 in1018.6 mb 0.00 in0.0 mm 0.00 in0.0 mm 0.00 in0.0 mm
09:20 PM 77.7°F25.4°C 37.0°F2.8°C 23% 2.2 mph NW3.5 kmh NW 6.0 mph9.7 kmh 30.09 in1019.0 mb 0.00 in0.0 mm 0.00 in0.0 mm 0.00 in0.0 mm
09:25 PM 77.2°F25.1°C 37.6°F3.1°C 24% 2.2 mph NW3.5 kmh NW 4.5 mph7.2 kmh 30.08 in1018.6 mb 0.00 in0.0 mm 0.00 in0.0 mm 0.00 in0.0 mm
09:30 PM 76.8°F24.9°C 37.3°F2.9°C 24% 0.7 mph NNE1.1 kmh NNE 5.4 mph8.7 kmh 30.08 in1018.6 mb 0.00 in0.0 mm 0.00 in0.0 mm 0.00 in0.0 mm
09:35 PM 76.8°F24.9°C 37.3°F2.9°C 24% 3.8 mph NE6.1 kmh NE 7.6 mph12.2 kmh 30.09 in1019.0 mb 0.00 in0.0 mm 0.00 in0.0 mm 0.00 in0.0 mm
09:40 PM 77.0°F25.0°C 36.4°F2.4°C 23% 4.5 mph E7.2 kmh E 9.2 mph14.8 kmh 30.09 in1019.0 mb 0.00 in0.0 mm 0.00 in0.0 mm 0.00 in0.0 mm
09:45 PM 77.2°F25.1°C 36.6°F2.6°C 23% 1.6 mph E2.6 kmh E 9.2 mph14.8 kmh 30.09 in1019.0 mb 0.00 in0.0 mm 0.00 in0.0 mm 0.00 in0.0 mm
09:50 PM 77.2°F25.1°C 36.6°F2.6°C 23% 2.2 mph E3.5 kmh E 9.2 mph14.8 kmh 30.09 in1019.0 mb 0.00 in0.0 mm 0.00 in0.0 mm 0.00 in0.0 mm
09:55 PM 76.8°F24.9°C 37.3°F2.9°C 24% 0.7 mph ESE1.1 kmh ESE 3.8 mph6.1 kmh 30.09 in1019.0 mb 0.00 in0.0 mm 0.00 in0.0 mm 0.00 in0.0 mm
10:00 PM 76.1°F24.5°C 38.8°F3.8°C 26% 0.7 mph E1.1 kmh E 2.2 mph3.5 kmh 30.09 in1019.0 mb 0.00 in0.0 mm 0.00 in0.0 mm 0.00 in0.0 mm
10:05 PM 75.0°F23.9°C 40.6°F4.8°C 29% 1.6 mph NE2.6 kmh NE 2.2 mph3.5 kmh 30.09 in1019.0 mb 0.00 in0.0 mm 0.00 in0.0 mm 0.00 in0.0 mm
10:10 PM 74.1°F23.4°C 40.7°F4.8°C 30% Calm Calm 2.2 mph3.5 kmh 30.09 in1019.0 mb 0.00 in0.0 mm 0.00 in0.0 mm 0.00 in0.0 mm
10:15 PM 73.2°F22.9°C 41.6°F5.3°C 32% Calm Calm 2.2 mph3.5 kmh 30.09 in1019.0 mb 0.00 in0.0 mm 0.00 in0.0 mm 0.00 in0.0 mm
10:20 PM 72.3°F22.4°C 41.6°F5.3°C 33% 1.6 mph NW2.6 kmh NW 2.2 mph3.5 kmh 30.09 in1019.0 mb 0.00 in0.0 mm 0.00 in0.0 mm 0.00 in0.0 mm
10:25 PM 71.6°F22.0°C 42.5°F5.8°C 35% 0.7 mph NNE1.1 kmh NNE 2.2 mph3.5 kmh 30.09 in1019.0 mb 0.00 in0.0 mm 0.00 in0.0 mm 0.00 in0.0 mm
10:30 PM 70.9°F21.6°C 44.7°F7.1°C 39% Calm Calm 2.2 mph3.5 kmh 30.09 in1019.0 mb 0.00 in0.0 mm 0.00 in0.0 mm 0.00 in0.0 mm
10:35 PM 70.2°F21.2°C 45.4°F7.4°C 41% 1.6 mph NE2.6 kmh NE 2.2 mph3.5 kmh 30.09 in1019.0 mb 0.00 in0.0 mm 0.00 in0.0 mm 0.00 in0.0 mm
10:40 PM 69.4°F20.8°C 46.0°F7.8°C 43% 0.7 mph N1.1 kmh N 2.2 mph3.5 kmh 30.09 in1019.0 mb 0.00 in0.0 mm 0.00 in0.0 mm 0.00 in0.0 mm
10:45 PM 68.9°F20.5°C 45.5°F7.5°C 43% 3.1 mph N5.0 kmh N 3.8 mph6.1 kmh 30.10 in1019.3 mb 0.00 in0.0 mm 0.00 in0.0 mm 0.00 in0.0 mm
10:50 PM 68.5°F20.3°C 45.2°F7.3°C 43% 1.6 mph NE2.6 kmh NE 4.5 mph7.2 kmh 30.10 in1019.3 mb 0.00 in0.0 mm 0.00 in0.0 mm 0.00 in0.0 mm
10:55 PM 68.4°F20.2°C 45.0°F7.2°C 43% 0.7 mph ENE1.1 kmh ENE 4.5 mph7.2 kmh 30.10 in1019.3 mb 0.00 in0.0 mm 0.00 in0.0 mm 0.00 in0.0 mm
11:00 PM 68.0°F20.0°C 45.3°F7.4°C 44% Calm Calm 2.2 mph3.5 kmh 30.09 in1019.0 mb 0.00 in0.0 mm 0.00 in0.0 mm 0.00 in0.0 mm
11:05 PM 68.0°F20.0°C 45.3°F7.4°C 44% Calm Calm 2.2 mph3.5 kmh 30.10 in1019.3 mb 0.00 in0.0 mm 0.00 in0.0 mm 0.00 in0.0 mm
11:10 PM 67.3°F19.6°C 45.8°F7.7°C 46% Calm Calm -- 30.10 in1019.3 mb 0.00 in0.0 mm 0.00 in0.0 mm 0.00 in0.0 mm
11:15 PM 66.9°F19.4°C 46.1°F7.8°C 47% Calm Calm -- 30.10 in1019.3 mb 0.00 in0.0 mm 0.00 in0.0 mm 0.00 in0.0 mm
11:20 PM 66.4°F19.1°C 46.1°F7.8°C 48% Calm Calm -- 30.10 in1019.3 mb 0.00 in0.0 mm 0.00 in0.0 mm 0.00 in0.0 mm
11:25 PM 65.8°F18.8°C 47.2°F8.4°C 51% Calm Calm -- 30.10 in1019.3 mb 0.00 in0.0 mm 0.00 in0.0 mm 0.00 in0.0 mm
11:30 PM 65.5°F18.6°C 46.9°F8.3°C 51% 0.7 mph ENE1.1 kmh ENE 1.6 mph2.6 kmh 30.10 in1019.3 mb 0.00 in0.0 mm 0.00 in0.0 mm 0.00 in0.0 mm
11:35 PM 65.3°F18.5°C 46.7°F8.2°C 51% 2.2 mph E3.5 kmh E 3.1 mph5.0 kmh 30.10 in1019.3 mb 0.00 in0.0 mm 0.00 in0.0 mm 0.00 in0.0 mm
11:40 PM 65.5°F18.6°C 46.4°F8.0°C 50% 1.6 mph E2.6 kmh E 3.1 mph5.0 kmh 30.11 in1019.6 mb 0.00 in0.0 mm 0.00 in0.0 mm 0.00 in0.0 mm
11:45 PM 65.3°F18.5°C 46.7°F8.2°C 51% 0.7 mph E1.1 kmh E 3.1 mph5.0 kmh 30.10 in1019.3 mb 0.00 in0.0 mm 0.00 in0.0 mm 0.00 in0.0 mm
11:50 PM 65.1°F18.4°C 46.6°F8.1°C 51% 0.7 mph E1.1 kmh E 2.2 mph3.5 kmh 30.11 in1019.6 mb 0.00 in0.0 mm 0.00 in0.0 mm 0.00 in0.0 mm
11:55 PM 64.9°F18.3°C 46.9°F8.3°C 52% 2.2 mph E3.5 kmh E 3.1 mph5.0 kmh 30.11 in1019.6 mb 0.00 in0.0 mm 0.00 in0.0 mm 0.00 in0.0 mm